createdAt,value
2023-05-22T00:01:52.112Z,3.53
2023-05-22T00:04:21.609Z,2.80
2023-05-22T00:06:52.548Z,2.75
2023-05-22T00:09:21.451Z,2.95
2023-05-22T00:11:49.798Z,2.70
2023-05-22T00:14:18.565Z,3.00
2023-05-22T00:16:48.572Z,2.75
2023-05-22T00:19:18.569Z,3.13
2023-05-22T00:21:47.409Z,2.83
2023-05-22T00:24:17.361Z,3.10
2023-05-22T00:26:46.244Z,3.40
2023-05-22T00:29:14.890Z,3.15
2023-05-22T00:31:43.442Z,2.80
2023-05-22T00:34:12.156Z,2.67
2023-05-22T00:36:40.479Z,2.97
2023-05-22T00:39:10.499Z,3.05
2023-05-22T00:41:40.142Z,2.60
2023-05-22T00:44:10.405Z,2.75
2023-05-22T00:46:38.688Z,2.90
2023-05-22T00:49:07.312Z,3.30
2023-05-22T00:51:35.697Z,3.38
2023-05-22T00:54:05.034Z,3.35
2023-05-22T00:56:33.425Z,3.40
2023-05-22T00:59:04.559Z,3.35
2023-05-22T01:01:33.959Z,3.28
2023-05-22T01:04:04.006Z,3.13
2023-05-22T01:06:32.811Z,3.15
2023-05-22T01:09:01.366Z,3.20
2023-05-22T01:11:34.496Z,3.17
2023-05-22T01:14:11.487Z,3.22
2023-05-22T01:16:48.553Z,3.72
2023-05-22T01:19:31.331Z,3.45
2023-05-22T01:22:11.797Z,3.33
2023-05-22T01:25:00.286Z,3.08
2023-05-22T01:27:54.867Z,3.30
2023-05-22T01:30:44.237Z,2.65
2023-05-22T01:33:16.535Z,3.10
2023-05-22T01:35:47.118Z,2.90
2023-05-22T01:38:16.258Z,2.88
2023-05-22T01:40:46.308Z,3.05
2023-05-22T01:43:14.972Z,2.83
2023-05-22T01:45:45.013Z,2.80
2023-05-22T01:48:13.536Z,3.08
2023-05-22T01:50:42.342Z,2.90
2023-05-22T01:53:14.463Z,3.50
2023-05-22T01:55:47.705Z,2.85
2023-05-22T01:58:22.932Z,2.67
2023-05-22T02:00:55.033Z,3.03
2023-05-22T02:03:30.007Z,3.10
2023-05-22T02:06:01.553Z,3.15
2023-05-22T02:08:30.680Z,2.70
2023-05-22T02:11:00.846Z,2.50
2023-05-22T02:13:29.556Z,3.40
2023-05-22T02:16:00.011Z,2.65
2023-05-22T02:18:31.439Z,3.08
2023-05-22T02:21:00.360Z,3.28
2023-05-22T02:23:31.628Z,2.90
2023-05-22T02:26:00.513Z,2.90
2023-05-22T02:28:29.283Z,3.38
2023-05-22T02:30:59.741Z,3.28
2023-05-22T02:33:30.049Z,3.17
2023-05-22T02:35:58.766Z,3.37
2023-05-22T02:38:27.149Z,3.08
2023-05-22T02:40:55.908Z,2.95
2023-05-22T02:43:24.254Z,3.03
2023-05-22T02:45:52.848Z,3.67
2023-05-22T02:48:22.730Z,4.00
2023-05-22T02:50:51.299Z,3.67
2023-05-22T02:53:19.601Z,3.47
2023-05-22T02:55:48.607Z,4.15
2023-05-22T02:58:17.947Z,3.53
2023-05-22T03:00:46.768Z,3.50
2023-05-22T03:03:18.197Z,3.83
2023-05-22T03:05:48.217Z,3.97
2023-05-22T03:08:16.842Z,3.67
2023-05-22T03:10:45.246Z,3.33
2023-05-22T03:13:13.637Z,3.50
2023-05-22T03:15:42.782Z,3.55
2023-05-22T03:18:11.494Z,3.25
2023-05-22T03:20:40.558Z,3.65
2023-05-22T03:23:11.580Z,3.03
2023-05-22T03:25:40.381Z,3.60
2023-05-22T03:28:08.566Z,3.92
2023-05-22T03:30:37.537Z,3.63
2023-05-22T03:33:06.126Z,3.65
2023-05-22T03:35:34.979Z,3.47
2023-05-22T03:38:03.323Z,3.90
2023-05-22T03:40:33.638Z,3.30
2023-05-22T03:43:02.137Z,3.60
2023-05-22T03:45:30.923Z,3.35
2023-05-22T03:47:59.148Z,3.55
2023-05-22T03:50:28.612Z,3.42
2023-05-22T03:52:57.022Z,3.25
2023-05-22T03:55:26.789Z,3.25
2023-05-22T03:57:56.796Z,3.35
2023-05-22T04:00:26.888Z,3.33
2023-05-22T04:02:58.996Z,3.03
2023-05-22T04:05:28.220Z,2.90
2023-05-22T04:07:57.318Z,3.15
2023-05-22T04:10:25.863Z,4.00
2023-05-22T04:12:54.364Z,3.30
2023-05-22T04:15:24.427Z,2.78
2023-05-22T04:17:53.737Z,3.10
2023-05-22T04:20:23.999Z,3.05
2023-05-22T04:22:52.386Z,3.53
2023-05-22T04:25:21.451Z,3.55
2023-05-22T04:27:50.704Z,2.90
2023-05-22T04:30:19.669Z,2.70
2023-05-22T04:32:50.057Z,3.25
2023-05-22T04:35:19.692Z,3.00
2023-05-22T04:37:47.852Z,3.00
2023-05-22T04:40:16.509Z,2.88
2023-05-22T04:42:44.969Z,3.97
2023-05-22T04:45:15.222Z,3.10
2023-05-22T04:47:43.552Z,3.00
2023-05-22T04:50:14.421Z,3.13
2023-05-22T04:52:42.749Z,2.70
2023-05-22T04:55:13.126Z,2.70
2023-05-22T04:57:44.841Z,3.42
2023-05-22T05:00:16.373Z,2.97
2023-05-22T05:02:44.828Z,3.47
2023-05-22T05:05:16.028Z,3.53
2023-05-22T05:07:49.217Z,3.60
2023-05-22T05:10:21.888Z,3.75
2023-05-22T05:12:50.224Z,3.60
2023-05-22T05:15:18.764Z,3.22
2023-05-22T05:17:47.647Z,3.67
2023-05-22T05:20:18.059Z,3.53
2023-05-22T05:22:46.568Z,4.28
2023-05-22T05:25:15.173Z,3.90
2023-05-22T05:27:43.589Z,4.32
2023-05-22T05:30:12.460Z,4.63
2023-05-22T05:32:40.904Z,4.85
2023-05-22T05:35:10.890Z,4.50
2023-05-22T05:37:41.958Z,4.40
2023-05-22T05:42:39.065Z,3.83
2023-05-22T05:45:08.849Z,3.60
2023-05-22T05:47:37.245Z,4.15
2023-05-22T05:50:07.546Z,3.60
2023-05-22T05:52:35.838Z,3.80
2023-05-22T05:55:06.524Z,3.80
2023-05-22T05:57:35.041Z,3.40
2023-05-22T06:00:04.954Z,2.92
2023-05-22T06:02:35.486Z,2.63
2023-05-22T06:05:05.179Z,3.25
2023-05-22T06:07:35.169Z,2.75
2023-05-22T06:10:05.608Z,3.20
2023-05-22T06:12:34.366Z,2.90
2023-05-22T06:15:04.238Z,2.90
2023-05-22T06:17:32.704Z,3.50
2023-05-22T06:20:01.556Z,2.88
2023-05-22T06:22:30.696Z,2.95
2023-05-22T06:24:59.465Z,2.92
2023-05-22T06:27:29.867Z,2.97
2023-05-22T06:29:58.584Z,3.33
2023-05-22T06:32:27.120Z,3.00
2023-05-22T06:34:55.830Z,2.67
2023-05-22T06:37:24.236Z,2.78
2023-05-22T06:39:53.259Z,2.97
2023-05-22T06:42:21.633Z,2.75
2023-05-22T06:44:51.774Z,2.90
2023-05-22T06:47:20.953Z,2.38
2023-05-22T06:49:49.733Z,2.70
2023-05-22T06:52:18.160Z,2.92
2023-05-22T06:54:46.648Z,2.40
2023-05-22T06:57:15.052Z,2.72
2023-05-22T06:59:43.583Z,2.83
2023-05-22T07:02:13.317Z,2.92
2023-05-22T07:04:42.098Z,2.92
2023-05-22T07:07:11.537Z,2.90
2023-05-22T07:09:40.180Z,2.80
2023-05-22T07:12:10.236Z,3.17
2023-05-22T07:14:39.133Z,2.85
2023-05-22T07:17:07.537Z,2.20
2023-05-22T07:19:37.586Z,2.58
2023-05-22T07:22:06.789Z,2.78
2023-05-22T07:24:35.770Z,2.70
2023-05-22T07:27:04.508Z,2.42
2023-05-22T07:29:33.847Z,2.58
2023-05-22T07:32:02.369Z,2.67
2023-05-22T07:34:33.588Z,2.65
2023-05-22T07:39:37.866Z,2.28
2023-05-22T07:42:06.624Z,2.30
2023-05-22T07:44:36.552Z,2.53
2023-05-22T07:47:06.412Z,2.30
2023-05-22T07:49:35.029Z,2.78
2023-05-22T07:52:08.117Z,2.60
2023-05-22T07:54:36.484Z,2.10
2023-05-22T07:57:05.530Z,2.25
2023-05-22T07:59:34.233Z,2.20
2023-05-22T08:02:02.964Z,2.35
2023-05-22T08:04:31.692Z,2.70
2023-05-22T08:07:01.704Z,2.25
2023-05-22T08:09:31.752Z,2.42
2023-05-22T08:12:01.098Z,3.30
2023-05-22T08:14:29.840Z,2.40
2023-05-22T08:16:59.600Z,2.42
2023-05-22T08:19:28.117Z,2.05
2023-05-22T08:21:58.426Z,2.22
2023-05-22T08:24:28.699Z,2.13
2023-05-22T08:27:01.358Z,2.70
2023-05-22T08:29:30.428Z,2.20
2023-05-22T08:31:59.736Z,2.78
2023-05-22T08:34:28.554Z,2.25
2023-05-22T08:36:57.233Z,2.72
2023-05-22T08:39:25.680Z,2.70
2023-05-22T08:41:54.341Z,2.20
2023-05-22T08:44:25.424Z,1.80
2023-05-22T08:46:56.757Z,2.20
2023-05-22T08:49:25.991Z,2.20
2023-05-22T08:51:58.426Z,2.03
2023-05-22T08:54:28.093Z,2.10
2023-05-22T08:56:57.675Z,2.03
2023-05-22T08:59:28.082Z,2.15
2023-05-22T09:01:58.274Z,1.85
2023-05-22T09:04:28.729Z,1.90
2023-05-22T09:06:57.597Z,2.20
2023-05-22T09:09:26.297Z,1.98
2023-05-22T09:11:56.418Z,2.17
2023-05-22T09:14:25.416Z,1.90
2023-05-22T09:16:56.393Z,2.10
2023-05-22T09:21:53.472Z,2.50
2023-05-22T09:24:21.935Z,1.90
2023-05-22T09:26:52.658Z,2.28
2023-05-22T09:29:21.481Z,1.85
2023-05-22T09:31:50.504Z,2.17
2023-05-22T09:34:20.813Z,2.35
2023-05-22T09:36:51.415Z,2.63
2023-05-22T09:39:20.187Z,2.08
2023-05-22T09:41:48.906Z,1.90
2023-05-22T09:44:17.901Z,2.10
2023-05-22T09:46:48.004Z,2.30
2023-05-22T09:49:17.492Z,1.92
2023-05-22T09:51:49.130Z,2.03
2023-05-22T09:54:18.596Z,2.10
2023-05-22T09:56:50.492Z,2.67
2023-05-22T09:59:22.571Z,2.30
2023-05-22T10:01:52.111Z,2.50
2023-05-22T10:04:22.378Z,2.17
2023-05-22T10:06:54.811Z,2.33
2023-05-22T10:09:26.081Z,2.30
2023-05-22T10:11:56.697Z,2.13
2023-05-22T10:14:25.357Z,2.20
2023-05-22T10:16:55.048Z,2.22
2023-05-22T10:19:27.463Z,2.20
2023-05-22T10:21:58.000Z,2.05
2023-05-22T10:24:27.063Z,2.30
2023-05-22T10:26:55.882Z,2.40
2023-05-22T10:29:27.072Z,2.55
2023-05-22T10:32:01.093Z,1.90
2023-05-22T10:34:34.067Z,2.40
2023-05-22T10:37:18.301Z,2.08
2023-05-22T10:39:57.762Z,2.35
2023-05-22T10:42:31.163Z,2.15
2023-05-22T10:45:01.635Z,2.20
2023-05-22T10:47:30.291Z,2.10
2023-05-22T10:50:13.955Z,2.50
2023-05-22T10:52:44.164Z,2.70
2023-05-22T10:55:13.116Z,2.22
2023-05-22T10:57:41.792Z,2.10
2023-05-22T11:00:14.601Z,2.90
2023-05-22T11:02:45.074Z,2.33
2023-05-22T11:05:35.457Z,2.50
2023-05-22T11:08:40.983Z,2.58
2023-05-22T11:11:15.672Z,2.50
2023-05-22T11:13:44.327Z,2.35
2023-05-22T11:16:12.669Z,2.33
2023-05-22T11:18:41.268Z,2.75
2023-05-22T11:21:13.884Z,2.70
2023-05-22T11:23:44.310Z,2.28
2023-05-22T11:26:26.446Z,2.50
2023-05-22T11:28:56.913Z,2.78
2023-05-22T11:31:25.380Z,2.55
2023-05-22T11:33:54.893Z,2.40
2023-05-22T11:36:23.890Z,2.63
2023-05-22T11:38:58.950Z,2.53
2023-05-22T11:41:33.474Z,2.70
2023-05-22T11:44:03.240Z,2.47
2023-05-22T11:46:31.900Z,2.60
2023-05-22T11:49:00.924Z,2.60
2023-05-22T11:51:29.656Z,2.33
2023-05-22T11:54:00.400Z,2.38
2023-05-22T11:56:28.626Z,2.38
2023-05-22T11:58:58.117Z,2.50
2023-05-22T12:01:26.660Z,2.42
2023-05-22T12:03:55.864Z,2.50
2023-05-22T12:06:24.650Z,2.25
2023-05-22T12:08:53.464Z,2.40
2023-05-22T12:11:23.859Z,2.30
2023-05-22T12:14:01.755Z,2.30
2023-05-22T12:16:35.763Z,2.30
2023-05-22T12:19:08.141Z,2.50
2023-05-22T12:21:36.871Z,1.98
2023-05-22T12:24:06.311Z,2.05
2023-05-22T12:26:36.492Z,1.90
2023-05-22T12:29:05.964Z,2.42
2023-05-22T12:31:39.001Z,2.15
2023-05-22T12:34:08.902Z,2.00
2023-05-22T12:36:39.985Z,3.00
2023-05-22T12:39:10.642Z,2.10
2023-05-22T12:41:40.472Z,2.57
2023-05-22T12:44:09.156Z,2.25
2023-05-22T12:46:37.829Z,2.40
2023-05-22T12:49:06.615Z,2.33
2023-05-22T12:51:34.811Z,2.00
2023-05-22T12:54:05.923Z,2.38
2023-05-22T12:56:34.548Z,2.10
2023-05-22T12:59:04.725Z,2.30
2023-05-22T13:01:33.584Z,2.22
2023-05-22T13:04:02.248Z,2.22
2023-05-22T13:06:31.056Z,1.95
2023-05-22T13:08:59.829Z,2.45
2023-05-22T13:11:28.254Z,2.40
2023-05-22T13:13:56.932Z,1.95
2023-05-22T13:16:26.649Z,2.70
2023-05-22T13:18:55.345Z,2.33
2023-05-22T13:21:26.351Z,2.60
2023-05-22T13:23:56.847Z,2.83
2023-05-22T13:26:26.346Z,2.72
2023-05-22T13:28:55.088Z,2.60
2023-05-22T13:31:23.502Z,2.85
2023-05-22T13:33:53.527Z,2.67
2023-05-22T13:36:22.115Z,2.20
2023-05-22T13:38:50.993Z,2.42
2023-05-22T13:41:21.196Z,2.25
2023-05-22T13:43:49.792Z,2.58
2023-05-22T13:46:21.250Z,2.60
2023-05-22T13:48:51.180Z,2.40
2023-05-22T13:51:20.812Z,2.40
2023-05-22T13:53:49.656Z,2.67
2023-05-22T13:56:17.946Z,2.10
2023-05-22T13:58:46.650Z,1.92
2023-05-22T14:01:15.160Z,2.15
2023-05-22T14:03:44.743Z,2.53
2023-05-22T14:06:16.259Z,2.35
2023-05-22T14:08:46.405Z,2.30
2023-05-22T14:11:15.051Z,2.90
2023-05-22T14:13:43.986Z,2.47
2023-05-22T14:16:12.383Z,2.05
2023-05-22T14:18:41.115Z,2.30
2023-05-22T14:21:09.604Z,2.60
2023-05-22T14:23:38.774Z,2.13
2023-05-22T14:26:08.744Z,2.33
2023-05-22T14:28:37.465Z,2.17
2023-05-22T14:31:06.535Z,2.22
2023-05-22T14:33:35.907Z,2.25
2023-05-22T14:36:05.524Z,2.38
2023-05-22T14:38:34.653Z,2.17
2023-05-22T14:41:03.524Z,1.95
2023-05-22T14:43:33.991Z,2.20
2023-05-22T14:46:02.554Z,2.50
2023-05-22T14:48:31.184Z,2.00
2023-05-22T14:50:59.609Z,2.75
2023-05-22T14:53:28.387Z,2.55
2023-05-22T14:55:56.759Z,2.97
2023-05-22T14:58:25.450Z,2.25
2023-05-22T15:00:55.481Z,2.20
2023-05-22T15:03:24.115Z,2.35
2023-05-22T15:05:52.315Z,2.53
2023-05-22T15:08:21.300Z,2.15
2023-05-22T15:10:49.913Z,2.33
2023-05-22T15:13:18.485Z,2.45
2023-05-22T15:15:46.952Z,2.67
2023-05-22T15:18:17.163Z,2.47
2023-05-22T15:20:45.608Z,2.35
2023-05-22T15:23:14.310Z,2.75
2023-05-22T15:25:43.153Z,2.47
2023-05-22T15:28:11.922Z,2.42
2023-05-22T15:30:41.994Z,2.50
2023-05-22T15:33:12.609Z,2.00
2023-05-22T15:35:44.271Z,2.38
2023-05-22T15:38:13.601Z,2.50
2023-05-22T15:40:42.325Z,2.33
2023-05-22T15:43:11.410Z,2.78
2023-05-22T15:45:40.445Z,2.20
2023-05-22T15:48:09.912Z,2.25
2023-05-22T15:50:38.288Z,2.33
2023-05-22T15:53:08.186Z,2.45
2023-05-22T15:55:36.733Z,2.15
2023-05-22T15:58:08.231Z,2.63
2023-05-22T16:03:10.327Z,2.70
2023-05-22T16:05:41.399Z,2.58
2023-05-22T16:08:12.479Z,2.45
2023-05-22T16:10:42.094Z,2.27
2023-05-22T16:13:11.740Z,2.78
2023-05-22T16:15:40.925Z,2.35
2023-05-22T16:18:11.576Z,2.53
2023-05-22T16:20:40.957Z,2.78
2023-05-22T16:23:09.584Z,2.50
2023-05-22T16:25:39.648Z,2.55
2023-05-22T16:28:08.531Z,2.50
2023-05-22T16:30:36.833Z,2.35
2023-05-22T16:33:05.703Z,2.30
2023-05-22T16:35:34.206Z,2.80
2023-05-22T16:38:02.912Z,2.60
2023-05-22T16:40:31.278Z,2.80
2023-05-22T16:43:01.680Z,2.67
2023-05-22T16:45:30.139Z,2.85
2023-05-22T16:47:58.787Z,2.78
2023-05-22T16:50:27.791Z,2.50
2023-05-22T16:52:56.484Z,2.35
2023-05-22T16:55:24.858Z,3.03
2023-05-22T16:57:53.640Z,2.58
2023-05-22T17:00:23.835Z,2.13
2023-05-22T17:02:53.020Z,2.50
2023-05-22T17:05:21.538Z,2.63
2023-05-22T17:07:51.493Z,2.63
2023-05-22T17:10:20.099Z,2.83
2023-05-22T17:12:48.869Z,2.50
2023-05-22T17:15:17.583Z,2.75
2023-05-22T17:17:47.613Z,3.10
2023-05-22T17:20:16.892Z,3.20
2023-05-22T17:22:45.443Z,2.92
2023-05-22T17:25:14.449Z,3.13
2023-05-22T17:27:43.341Z,3.17
2023-05-22T17:30:12.244Z,3.75
2023-05-22T17:32:41.170Z,3.67
2023-05-22T17:35:11.137Z,2.50
2023-05-22T17:37:39.681Z,3.05
2023-05-22T17:40:10.462Z,2.95
2023-05-22T17:42:39.420Z,5.60
2023-05-22T17:45:09.550Z,3.10
2023-05-22T17:47:38.439Z,2.57
2023-05-22T17:50:07.991Z,3.00
2023-05-22T17:52:38.605Z,4.00
2023-05-22T17:55:08.287Z,3.28
2023-05-22T17:57:36.995Z,3.10
2023-05-22T18:00:10.002Z,3.80
2023-05-22T18:02:38.758Z,3.20
2023-05-22T18:05:08.776Z,3.08
2023-05-22T18:07:39.328Z,3.25
2023-05-22T18:10:08.879Z,3.38
2023-05-22T18:12:38.416Z,3.63
2023-05-22T18:15:09.795Z,3.28
2023-05-22T18:17:38.677Z,3.47
2023-05-22T18:20:08.572Z,3.47
2023-05-22T18:22:39.508Z,3.85
2023-05-22T18:25:09.192Z,3.37
2023-05-22T18:27:37.903Z,3.50
2023-05-22T18:30:07.707Z,3.35
2023-05-22T18:32:37.003Z,3.77
2023-05-22T18:35:06.370Z,4.03
2023-05-22T18:37:35.009Z,4.30
2023-05-22T18:40:06.912Z,4.70
2023-05-22T18:42:35.513Z,3.72
2023-05-22T18:45:03.903Z,3.92
2023-05-22T18:47:32.487Z,3.45
2023-05-22T18:50:01.012Z,3.65
2023-05-22T18:52:29.686Z,3.72
2023-05-22T18:54:58.040Z,3.80
2023-05-22T18:57:28.027Z,3.67
2023-05-22T18:59:56.347Z,3.88
2023-05-22T19:02:24.965Z,4.15
2023-05-22T19:04:53.591Z,3.83
2023-05-22T19:07:22.249Z,4.00
2023-05-22T19:09:50.741Z,4.10
2023-05-22T19:12:19.508Z,3.85
2023-05-22T19:14:49.843Z,3.90
2023-05-22T19:17:18.474Z,3.60
2023-05-22T19:19:46.898Z,4.00
2023-05-22T19:22:17.934Z,3.70
2023-05-22T19:24:46.409Z,4.38
2023-05-22T19:27:15.137Z,3.72
2023-05-22T19:29:43.474Z,3.78
2023-05-22T19:32:14.117Z,4.40
2023-05-22T19:34:42.487Z,4.37
2023-05-22T19:37:10.975Z,4.22
2023-05-22T19:39:39.435Z,4.63
2023-05-22T19:42:09.762Z,5.03
2023-05-22T19:44:38.295Z,5.10
2023-05-22T19:47:07.272Z,5.25
2023-05-22T19:49:37.488Z,5.13
2023-05-22T19:52:06.966Z,5.25
2023-05-22T19:54:35.766Z,5.40
2023-05-22T19:57:04.546Z,5.65
2023-05-22T19:59:35.843Z,5.40
2023-05-22T20:02:05.494Z,5.78
2023-05-22T20:04:38.820Z,6.25
2023-05-22T20:07:08.875Z,5.63
2023-05-22T20:09:37.566Z,6.10
2023-05-22T20:12:06.278Z,6.72
2023-05-22T20:14:34.580Z,6.72
2023-05-22T20:17:03.164Z,7.00
2023-05-22T20:19:32.677Z,6.95
2023-05-22T20:22:01.428Z,6.50
2023-05-22T20:24:31.278Z,6.47
2023-05-22T20:27:01.207Z,6.15
2023-05-22T20:29:29.544Z,6.28
2023-05-22T20:31:58.208Z,6.57
2023-05-22T20:34:26.837Z,6.18
2023-05-22T20:36:55.604Z,6.60
2023-05-22T20:39:24.003Z,6.25
2023-05-22T20:41:54.509Z,6.88
2023-05-22T20:44:24.874Z,6.73
2023-05-22T20:46:54.266Z,7.63
2023-05-22T20:49:22.843Z,7.03
2023-05-22T20:51:51.875Z,7.50
2023-05-22T20:54:20.242Z,7.30
2023-05-22T20:56:48.819Z,7.03
2023-05-22T20:59:18.411Z,6.80
2023-05-22T21:01:47.863Z,7.40
2023-05-22T21:04:16.102Z,7.53
2023-05-22T21:06:44.972Z,7.38
2023-05-22T21:09:13.239Z,7.07
2023-05-22T21:11:42.245Z,6.95
2023-05-22T21:14:10.517Z,7.13
2023-05-22T21:16:40.483Z,6.93
2023-05-22T21:19:09.080Z,7.38
2023-05-22T21:21:41.637Z,6.63
2023-05-22T21:24:10.176Z,7.25
2023-05-22T21:26:39.070Z,6.85
2023-05-22T21:29:07.463Z,7.40
2023-05-22T21:31:36.201Z,6.68
2023-05-22T21:34:05.967Z,6.68
2023-05-22T21:36:34.663Z,7.18
2023-05-22T21:39:03.613Z,6.35
2023-05-22T21:41:32.200Z,6.55
2023-05-22T21:44:00.728Z,7.28
2023-05-22T21:46:29.534Z,7.75
2023-05-22T21:48:58.055Z,7.35
2023-05-22T21:51:28.223Z,7.85
2023-05-22T21:53:56.718Z,8.73
2023-05-22T21:56:25.313Z,7.72
2023-05-22T21:58:53.650Z,7.10
2023-05-22T22:01:22.436Z,7.38
2023-05-22T22:03:51.045Z,10.35
2023-05-22T22:06:19.831Z,8.23
2023-05-22T22:08:49.578Z,8.90
2023-05-22T22:11:18.294Z,8.10
2023-05-22T22:13:46.649Z,8.45
2023-05-22T22:16:15.465Z,7.55
2023-05-22T22:18:44.038Z,7.75
2023-05-22T22:21:12.567Z,7.28
2023-05-22T22:23:41.070Z,7.00
2023-05-22T22:26:12.202Z,6.45
2023-05-22T22:28:40.719Z,6.63
2023-05-22T22:31:09.325Z,7.03
2023-05-22T22:33:37.662Z,6.45
2023-05-22T22:36:06.882Z,6.32
2023-05-22T22:38:35.444Z,7.47
2023-05-22T22:41:05.505Z,6.53
2023-05-22T22:43:35.235Z,7.03
2023-05-22T22:46:03.776Z,6.40
2023-05-22T22:48:32.266Z,6.93
2023-05-22T22:51:00.840Z,6.45
2023-05-22T22:53:29.462Z,5.82
2023-05-22T22:55:59.453Z,7.30
2023-05-22T22:58:27.687Z,6.30
2023-05-22T23:00:57.939Z,6.60
2023-05-22T23:03:27.334Z,7.05
2023-05-22T23:05:56.593Z,6.63
2023-05-22T23:08:24.916Z,6.85
2023-05-22T23:10:53.821Z,6.80
2023-05-22T23:13:22.182Z,6.70
2023-05-22T23:15:51.067Z,7.00
2023-05-22T23:18:21.115Z,7.10
2023-05-22T23:20:49.779Z,7.22
2023-05-22T23:23:18.135Z,6.65
2023-05-22T23:25:46.860Z,7.75
2023-05-22T23:28:15.254Z,7.63
2023-05-22T23:30:44.269Z,7.35
2023-05-22T23:33:12.681Z,6.93
2023-05-22T23:35:43.521Z,7.40
2023-05-22T23:38:11.907Z,6.93
2023-05-22T23:40:40.601Z,6.93
2023-05-22T23:43:09.024Z,7.10
2023-05-22T23:45:37.693Z,7.40
2023-05-22T23:48:06.195Z,7.65
2023-05-22T23:50:35.152Z,7.30
2023-05-22T23:53:05.065Z,6.97
2023-05-22T23:55:33.955Z,6.78
2023-05-22T23:58:02.354Z,6.97
